createdAt,value
2022-08-19T00:01:31.943Z,98.30
2022-08-19T00:04:06.715Z,97.90
2022-08-19T00:06:36.594Z,98.30
2022-08-19T00:09:07.472Z,98.30
2022-08-19T00:11:37.087Z,98.30
2022-08-19T00:14:09.666Z,98.60
2022-08-19T00:16:38.687Z,99.00
2022-08-19T00:19:07.358Z,99.60
2022-08-19T00:21:40.690Z,99.90
2022-08-19T00:24:10.869Z,99.90
2022-08-19T00:26:40.157Z,99.90
2022-08-19T00:29:13.267Z,99.90
2022-08-19T00:31:42.890Z,99.90
2022-08-19T00:34:12.602Z,99.90
2022-08-19T00:36:41.814Z,99.90
2022-08-19T00:39:10.880Z,99.90
2022-08-19T00:41:39.365Z,99.90
2022-08-19T00:44:15.003Z,99.90
2022-08-19T00:46:45.740Z,99.90
2022-08-19T00:49:29.969Z,99.90
2022-08-19T00:52:01.772Z,99.90
2022-08-19T00:54:32.543Z,99.90
2022-08-19T00:57:01.715Z,99.90
2022-08-19T01:00:00.298Z,99.90
2022-08-19T01:02:20.496Z,99.90
2022-08-19T01:04:49.311Z,99.90
2022-08-19T01:07:19.751Z,99.90
2022-08-19T01:09:48.216Z,99.90
2022-08-19T01:12:17.320Z,99.90
2022-08-19T01:14:47.854Z,99.90
2022-08-19T01:17:17.218Z,99.90
2022-08-19T01:19:47.835Z,99.90
2022-08-19T01:22:28.687Z,99.90
2022-08-19T01:25:00.375Z,99.90
2022-08-19T01:27:29.921Z,99.90
2022-08-19T01:30:08.013Z,99.90
2022-08-19T01:32:36.390Z,99.90
2022-08-19T01:35:06.614Z,99.90
2022-08-19T01:37:44.946Z,99.90
2022-08-19T01:40:15.170Z,99.90
2022-08-19T01:42:43.448Z,99.90
2022-08-19T01:45:12.968Z,99.90
2022-08-19T01:47:41.596Z,99.90
2022-08-19T01:50:11.747Z,99.90
2022-08-19T01:52:40.889Z,99.90
2022-08-19T01:55:12.113Z,99.90
2022-08-19T01:57:43.709Z,99.90
2022-08-19T02:00:16.461Z,99.90
2022-08-19T02:02:45.026Z,99.90
2022-08-19T02:05:14.411Z,99.90
2022-08-19T02:07:43.102Z,99.90
2022-08-19T02:10:16.695Z,99.90
2022-08-19T02:12:47.643Z,99.90
2022-08-19T02:15:16.202Z,99.90
2022-08-19T02:17:46.045Z,99.90
2022-08-19T02:20:15.452Z,99.90
2022-08-19T02:22:44.521Z,99.90
2022-08-19T02:25:14.472Z,99.90
2022-08-19T02:27:43.858Z,99.90
2022-08-19T02:30:16.963Z,99.90
2022-08-19T02:32:45.651Z,99.90
2022-08-19T02:35:15.274Z,99.90
2022-08-19T02:38:01.229Z,99.90
2022-08-19T02:40:29.490Z,99.90
2022-08-19T02:42:57.856Z,99.90
2022-08-19T02:45:27.444Z,99.90
2022-08-19T02:47:55.698Z,99.90
2022-08-19T02:50:23.987Z,99.90
2022-08-19T02:52:52.475Z,99.90
2022-08-19T02:55:21.909Z,99.90
2022-08-19T02:57:50.217Z,99.90
2022-08-19T03:00:19.229Z,99.90
2022-08-19T03:02:49.835Z,99.90
2022-08-19T03:05:18.264Z,99.90
2022-08-19T03:07:53.472Z,99.90
2022-08-19T03:10:21.795Z,99.90
2022-08-19T03:12:49.949Z,99.90
2022-08-19T03:15:18.168Z,99.90
2022-08-19T03:17:46.368Z,99.90
2022-08-19T03:20:15.996Z,99.90
2022-08-19T03:22:44.251Z,99.90
2022-08-19T03:25:13.055Z,99.90
2022-08-19T03:27:41.181Z,99.90
2022-08-19T03:30:11.769Z,99.90
2022-08-19T03:32:52.465Z,99.90
2022-08-19T03:35:27.314Z,99.90
2022-08-19T03:37:55.459Z,99.90
2022-08-19T03:40:23.617Z,99.90
2022-08-19T03:42:51.923Z,99.90
2022-08-19T03:45:20.675Z,99.90
2022-08-19T03:47:48.959Z,99.90
2022-08-19T03:50:17.582Z,99.90
2022-08-19T03:52:50.938Z,99.90
2022-08-19T03:55:19.673Z,99.90
2022-08-19T03:57:49.649Z,99.90
2022-08-19T04:00:19.057Z,99.90
2022-08-19T04:02:58.533Z,99.90
2022-08-19T04:05:30.662Z,99.90
2022-08-19T04:08:00.599Z,99.90
2022-08-19T04:10:29.270Z,99.90
2022-08-19T04:12:57.641Z,99.90
2022-08-19T04:15:25.854Z,99.90
2022-08-19T04:17:54.266Z,99.90
2022-08-19T04:20:22.704Z,99.90
2022-08-19T04:22:51.015Z,99.90
2022-08-19T04:25:20.792Z,99.90
2022-08-19T04:27:49.601Z,99.90
2022-08-19T04:30:18.727Z,99.90
2022-08-19T04:32:47.010Z,99.90
2022-08-19T04:35:16.788Z,99.90
2022-08-19T04:37:46.965Z,99.90
2022-08-19T04:40:32.676Z,99.90
2022-08-19T04:43:03.053Z,99.90
2022-08-19T04:45:39.687Z,99.90
2022-08-19T04:48:26.433Z,99.90
2022-08-19T04:50:58.620Z,99.90
2022-08-19T04:53:29.609Z,99.90
2022-08-19T04:55:58.532Z,99.90
2022-08-19T04:58:29.501Z,99.90
2022-08-19T05:00:58.179Z,99.90
2022-08-19T05:03:30.128Z,99.90
2022-08-19T05:05:59.440Z,99.90
2022-08-19T05:08:30.935Z,99.90
2022-08-19T05:11:00.115Z,99.90
2022-08-19T05:13:29.840Z,99.90
2022-08-19T05:15:59.545Z,99.90
2022-08-19T05:18:45.962Z,99.90
2022-08-19T05:21:35.755Z,99.90
2022-08-19T05:24:04.779Z,99.90
2022-08-19T05:26:33.128Z,99.90
2022-08-19T05:29:02.751Z,99.90
2022-08-19T05:31:31.084Z,99.90
2022-08-19T05:33:59.812Z,99.90
2022-08-19T05:36:28.246Z,99.90
2022-08-19T05:38:57.242Z,99.90
2022-08-19T05:41:30.487Z,99.90
2022-08-19T05:43:58.792Z,99.90
2022-08-19T05:46:28.479Z,99.90
2022-08-19T05:48:57.619Z,99.90
2022-08-19T05:51:28.982Z,99.90
2022-08-19T05:53:57.763Z,99.90
2022-08-19T05:56:26.589Z,99.90
2022-08-19T05:58:55.287Z,99.90
2022-08-19T06:01:29.003Z,99.90
2022-08-19T06:03:57.385Z,99.90
2022-08-19T06:06:25.617Z,99.90
2022-08-19T06:08:53.948Z,99.90
2022-08-19T06:11:25.459Z,99.90
2022-08-19T06:13:59.778Z,99.90
2022-08-19T06:16:32.695Z,99.90
2022-08-19T06:19:04.981Z,99.90
2022-08-19T06:21:33.337Z,99.90
2022-08-19T06:24:02.159Z,99.90
2022-08-19T06:26:30.741Z,99.90
2022-08-19T06:28:59.072Z,99.90
2022-08-19T06:31:30.347Z,99.90
2022-08-19T06:33:58.596Z,99.90
2022-08-19T06:36:32.849Z,99.90
2022-08-19T06:39:01.982Z,99.90
2022-08-19T06:41:31.220Z,99.90
2022-08-19T06:43:59.910Z,99.90
2022-08-19T06:46:29.842Z,99.90
2022-08-19T06:49:03.962Z,99.90
2022-08-19T06:51:34.786Z,99.90
2022-08-19T06:54:19.416Z,99.90
2022-08-19T06:56:48.889Z,99.90
2022-08-19T06:59:19.865Z,99.90
2022-08-19T07:01:51.451Z,99.90
2022-08-19T07:04:22.490Z,99.90
2022-08-19T07:06:55.094Z,99.90
2022-08-19T07:09:24.156Z,99.90
2022-08-19T07:11:54.590Z,99.90
2022-08-19T07:14:26.179Z,99.90
2022-08-19T07:16:58.415Z,99.90
2022-08-19T07:19:28.867Z,99.90
2022-08-19T07:21:57.875Z,99.90
2022-08-19T07:24:27.987Z,99.90
2022-08-19T07:27:03.750Z,99.90
2022-08-19T07:29:38.066Z,99.90
2022-08-19T07:32:11.621Z,99.90
2022-08-19T07:34:41.694Z,99.90
2022-08-19T07:37:11.135Z,99.90
2022-08-19T07:39:40.846Z,99.90
2022-08-19T07:42:11.335Z,99.90
2022-08-19T07:44:43.231Z,99.90
2022-08-19T07:47:50.120Z,99.90
2022-08-19T07:50:12.189Z,99.90
2022-08-19T07:52:40.964Z,99.90
2022-08-19T07:55:39.891Z,99.90
2022-08-19T07:57:59.473Z,99.90
2022-08-19T08:00:27.969Z,99.90
2022-08-19T08:02:57.763Z,99.90
2022-08-19T08:05:44.446Z,99.90
2022-08-19T08:08:44.234Z,99.90
2022-08-19T08:11:15.570Z,99.90
2022-08-19T08:13:44.669Z,99.90
2022-08-19T08:16:14.354Z,99.90
2022-08-19T08:18:50.783Z,99.90
2022-08-19T08:21:21.655Z,99.50
2022-08-19T08:23:52.087Z,98.40
2022-08-19T08:26:21.569Z,96.30
2022-08-19T08:28:50.250Z,96.00
2022-08-19T08:31:19.656Z,94.70
2022-08-19T08:33:49.803Z,93.40
2022-08-19T08:36:18.476Z,92.30
2022-08-19T08:38:48.104Z,91.90
2022-08-19T08:41:24.593Z,91.40
2022-08-19T08:43:54.482Z,90.10
2022-08-19T08:46:31.702Z,90.10
2022-08-19T08:49:06.630Z,90.80
2022-08-19T08:51:37.531Z,89.80
2022-08-19T08:54:10.059Z,88.10
2022-08-19T08:56:40.489Z,85.40
2022-08-19T08:59:22.930Z,85.60
2022-08-19T09:01:51.262Z,87.50
2022-08-19T09:04:21.239Z,88.70
2022-08-19T09:06:57.514Z,88.90
2022-08-19T09:09:33.605Z,88.00
2022-08-19T09:12:12.000Z,88.90
2022-08-19T09:14:51.789Z,88.80
2022-08-19T09:17:31.805Z,88.30
2022-08-19T09:20:09.669Z,90.20
2022-08-19T09:22:38.895Z,86.60
2022-08-19T09:25:08.322Z,85.50
2022-08-19T09:27:42.708Z,83.20
2022-08-19T09:30:14.290Z,82.70
2022-08-19T09:32:44.044Z,81.00
2022-08-19T09:35:16.139Z,79.00
2022-08-19T09:37:45.050Z,77.20
2022-08-19T09:40:14.592Z,74.90
2022-08-19T09:42:49.813Z,73.20
2022-08-19T09:45:22.283Z,72.50
2022-08-19T09:47:53.846Z,70.40
2022-08-19T09:50:25.474Z,71.00
2022-08-19T09:52:57.574Z,71.20
2022-08-19T09:55:30.960Z,68.90
2022-08-19T09:58:01.114Z,68.80
2022-08-19T10:00:29.450Z,68.90
2022-08-19T10:02:57.595Z,68.40
2022-08-19T10:05:45.040Z,67.20
2022-08-19T10:08:17.913Z,67.30
2022-08-19T10:10:47.236Z,66.00
2022-08-19T10:13:17.973Z,67.50
2022-08-19T10:15:48.146Z,67.70
2022-08-19T10:18:19.317Z,69.30
2022-08-19T10:20:51.534Z,69.60
2022-08-19T10:23:22.301Z,70.90
2022-08-19T10:25:50.913Z,71.50
2022-08-19T10:28:19.725Z,72.10
2022-08-19T10:30:48.671Z,72.10
2022-08-19T10:33:27.120Z,74.70
2022-08-19T10:36:10.586Z,75.10
2022-08-19T10:38:39.393Z,78.50
2022-08-19T10:41:20.817Z,84.40
2022-08-19T10:43:49.297Z,83.50
2022-08-19T10:46:18.011Z,82.10
2022-08-19T10:48:47.706Z,84.50
2022-08-19T10:51:37.747Z,90.60
2022-08-19T10:54:15.969Z,94.80
2022-08-19T10:56:56.112Z,99.10
2022-08-19T10:59:33.813Z,99.90
2022-08-19T11:02:06.244Z,99.90
2022-08-19T11:04:35.890Z,99.90
2022-08-19T11:07:06.975Z,99.90
2022-08-19T11:09:40.780Z,99.90
2022-08-19T11:12:10.656Z,99.90
2022-08-19T11:14:40.485Z,99.90
2022-08-19T11:17:09.117Z,99.90
2022-08-19T11:19:37.594Z,99.90
2022-08-19T11:22:10.730Z,99.90
2022-08-19T11:24:44.444Z,99.90
2022-08-19T11:27:12.938Z,99.90
2022-08-19T11:29:41.230Z,99.90
2022-08-19T11:32:11.860Z,99.90
2022-08-19T11:34:40.208Z,99.90
2022-08-19T11:37:10.204Z,99.90
2022-08-19T11:39:39.058Z,99.90
2022-08-19T11:42:23.164Z,99.90
2022-08-19T11:44:51.404Z,99.90
2022-08-19T11:47:20.156Z,99.90
2022-08-19T11:49:48.691Z,99.90
2022-08-19T11:52:18.449Z,99.90
2022-08-19T11:54:46.650Z,99.90
2022-08-19T11:57:17.811Z,99.90
2022-08-19T11:59:51.146Z,98.40
2022-08-19T12:02:20.138Z,96.80
2022-08-19T12:04:48.540Z,95.50
2022-08-19T12:07:18.376Z,93.30
2022-08-19T12:09:46.633Z,92.10
2022-08-19T12:12:17.457Z,91.80
2022-08-19T12:14:47.700Z,92.40
2022-08-19T12:17:16.323Z,92.00
2022-08-19T12:19:44.621Z,92.10
2022-08-19T12:22:13.455Z,92.00
2022-08-19T12:24:43.660Z,92.30
2022-08-19T12:27:12.606Z,92.20
2022-08-19T12:29:42.556Z,91.50
2022-08-19T12:32:12.314Z,91.30
2022-08-19T12:34:41.018Z,91.70
2022-08-19T12:37:10.074Z,91.80
2022-08-19T12:39:40.389Z,92.30
2022-08-19T12:42:10.515Z,93.00
2022-08-19T12:44:41.615Z,93.40
2022-08-19T12:47:11.347Z,92.70
2022-08-19T12:49:54.622Z,92.70
2022-08-19T12:52:25.474Z,93.10
2022-08-19T12:54:55.407Z,93.00
2022-08-19T12:57:32.049Z,94.00
2022-08-19T13:00:05.337Z,94.60
2022-08-19T13:02:39.005Z,95.70
2022-08-19T13:05:10.853Z,96.30
2022-08-19T13:07:39.588Z,95.90
2022-08-19T13:10:09.799Z,96.10
2022-08-19T13:12:39.537Z,96.40
2022-08-19T13:15:10.934Z,96.70
2022-08-19T13:17:40.905Z,97.40
2022-08-19T13:20:11.405Z,97.50
2022-08-19T13:22:40.598Z,97.90
2022-08-19T13:25:10.396Z,97.90
2022-08-19T13:27:41.038Z,97.90
2022-08-19T13:30:28.898Z,97.60
2022-08-19T13:33:16.228Z,97.40
2022-08-19T13:35:48.423Z,97.40
2022-08-19T13:38:18.951Z,98.20
2022-08-19T13:40:47.488Z,99.20
2022-08-19T13:43:22.810Z,99.90
2022-08-19T13:45:54.891Z,99.80
2022-08-19T13:48:24.668Z,99.90
2022-08-19T13:50:52.788Z,99.90
2022-08-19T13:53:21.389Z,99.90
2022-08-19T13:55:51.421Z,99.90
2022-08-19T13:58:21.142Z,99.90
2022-08-19T14:00:50.767Z,99.90
2022-08-19T14:03:19.003Z,99.90
2022-08-19T14:05:47.766Z,99.90
2022-08-19T14:08:16.144Z,99.90
2022-08-19T14:10:45.502Z,99.90
2022-08-19T14:13:18.298Z,99.90
2022-08-19T14:15:49.220Z,99.90
2022-08-19T14:18:18.623Z,99.90
2022-08-19T14:20:47.291Z,99.70
2022-08-19T14:23:15.752Z,99.00
2022-08-19T14:25:44.558Z,98.80
2022-08-19T14:28:12.773Z,98.40
2022-08-19T14:30:41.061Z,97.80
2022-08-19T14:33:10.832Z,97.80
2022-08-19T14:35:39.560Z,97.90
2022-08-19T14:38:09.187Z,98.10
2022-08-19T14:40:37.325Z,98.40
2022-08-19T14:43:07.222Z,98.30
2022-08-19T14:45:39.234Z,98.20
2022-08-19T14:48:19.118Z,97.30
2022-08-19T14:50:48.019Z,96.80
2022-08-19T14:53:17.865Z,96.30
2022-08-19T14:55:47.369Z,95.60
2022-08-19T14:58:28.964Z,95.80
2022-08-19T15:00:59.788Z,95.90
2022-08-19T15:03:30.043Z,96.50
2022-08-19T15:05:59.081Z,96.70
2022-08-19T15:08:28.535Z,95.10
2022-08-19T15:10:56.769Z,94.90
2022-08-19T15:13:26.117Z,95.20
2022-08-19T15:15:54.549Z,95.30
2022-08-19T15:18:22.810Z,95.30
2022-08-19T15:20:53.125Z,95.60
2022-08-19T15:23:23.076Z,95.40
2022-08-19T15:25:56.528Z,95.50
2022-08-19T15:28:25.069Z,95.60
2022-08-19T15:30:54.873Z,95.50
2022-08-19T15:33:23.160Z,95.90
2022-08-19T15:35:53.437Z,95.60
2022-08-19T15:38:25.789Z,95.90
2022-08-19T15:41:14.921Z,95.90
2022-08-19T15:43:44.235Z,96.00
2022-08-19T15:46:12.488Z,96.00
2022-08-19T15:48:45.499Z,96.00
2022-08-19T15:51:26.196Z,95.80
2022-08-19T15:53:55.364Z,95.90
2022-08-19T15:56:27.177Z,95.90
2022-08-19T15:59:13.735Z,96.20
2022-08-19T16:01:59.383Z,95.80
2022-08-19T16:04:44.713Z,95.90
2022-08-19T16:07:14.293Z,96.00
2022-08-19T16:09:50.655Z,95.40
2022-08-19T16:12:19.397Z,95.00
2022-08-19T16:14:48.611Z,94.70
2022-08-19T16:17:16.848Z,95.00
2022-08-19T16:19:47.573Z,95.00
2022-08-19T16:22:19.712Z,94.90
2022-08-19T16:24:47.840Z,94.90
2022-08-19T16:27:16.572Z,94.90
2022-08-19T16:29:44.871Z,94.90
2022-08-19T16:32:14.119Z,95.00
2022-08-19T16:34:43.916Z,95.10
2022-08-19T16:37:12.363Z,94.60
2022-08-19T16:39:43.744Z,94.50
2022-08-19T16:42:14.064Z,94.40
2022-08-19T16:44:45.200Z,94.70
2022-08-19T16:47:14.408Z,94.80
2022-08-19T16:49:54.367Z,95.10
2022-08-19T16:52:27.126Z,95.20
2022-08-19T16:54:57.016Z,94.90
2022-08-19T16:57:25.144Z,95.20
2022-08-19T16:59:53.597Z,95.20
2022-08-19T17:02:23.635Z,95.30
2022-08-19T17:04:59.300Z,95.40
2022-08-19T17:07:28.356Z,95.30
2022-08-19T17:09:58.721Z,95.20
2022-08-19T17:12:31.542Z,95.60
2022-08-19T17:15:02.228Z,95.70
2022-08-19T17:17:30.961Z,95.70
2022-08-19T17:20:00.475Z,95.90
2022-08-19T17:22:29.091Z,95.90
2022-08-19T17:24:58.982Z,96.00
2022-08-19T17:27:32.542Z,96.20
2022-08-19T17:30:02.629Z,96.40
2022-08-19T17:32:34.380Z,96.60
2022-08-19T17:35:02.720Z,96.70
2022-08-19T17:37:31.018Z,96.90
2022-08-19T17:40:00.766Z,97.00
2022-08-19T17:42:29.081Z,96.90
2022-08-19T17:44:59.287Z,96.60
2022-08-19T17:47:28.472Z,96.70
2022-08-19T17:49:57.385Z,96.30
2022-08-19T17:52:25.616Z,96.20
2022-08-19T17:54:53.823Z,96.70
2022-08-19T17:57:23.573Z,96.60
2022-08-19T17:59:52.192Z,96.50
2022-08-19T18:02:21.851Z,96.50
2022-08-19T18:04:50.803Z,96.50
2022-08-19T18:07:21.713Z,96.80
2022-08-19T18:09:52.865Z,97.10
2022-08-19T18:12:26.880Z,97.60
2022-08-19T18:14:55.250Z,97.90
2022-08-19T18:17:24.490Z,98.00
2022-08-19T18:19:52.988Z,98.30
2022-08-19T18:22:27.219Z,98.60
2022-08-19T18:24:56.105Z,98.70
2022-08-19T18:27:25.993Z,98.90
2022-08-19T18:29:59.821Z,99.10
2022-08-19T18:32:30.269Z,99.30
2022-08-19T18:34:58.725Z,99.50
2022-08-19T18:37:27.673Z,99.70
2022-08-19T18:40:13.506Z,99.80
2022-08-19T18:43:02.464Z,99.90
2022-08-19T18:45:48.481Z,99.90
2022-08-19T18:48:34.346Z,99.90
2022-08-19T18:51:03.368Z,99.90
2022-08-19T18:53:34.208Z,99.90
2022-08-19T18:56:03.594Z,99.90
2022-08-19T18:58:34.952Z,99.90
2022-08-19T19:01:11.181Z,99.90
2022-08-19T19:03:41.836Z,99.90
2022-08-19T19:06:10.114Z,99.90
2022-08-19T19:08:38.891Z,99.90
2022-08-19T19:11:07.753Z,99.90
2022-08-19T19:13:39.868Z,99.90
2022-08-19T19:16:10.111Z,99.90
2022-08-19T19:18:38.428Z,99.90
2022-08-19T19:21:07.575Z,99.90
2022-08-19T19:23:35.742Z,99.90
2022-08-19T19:26:03.950Z,99.90
2022-08-19T19:28:32.332Z,99.90
2022-08-19T19:31:02.095Z,99.90
2022-08-19T19:33:30.350Z,99.90
2022-08-19T19:35:58.698Z,99.90
2022-08-19T19:38:26.900Z,99.90
2022-08-19T19:40:55.115Z,99.90
2022-08-19T19:43:23.445Z,99.90
2022-08-19T19:45:52.047Z,99.90
2022-08-19T19:48:21.899Z,99.90
2022-08-19T19:50:54.178Z,99.90
2022-08-19T19:53:26.185Z,99.90
2022-08-19T19:55:58.885Z,99.90
2022-08-19T19:58:28.965Z,99.90
2022-08-19T20:00:59.015Z,99.90
2022-08-19T20:03:30.072Z,99.90
2022-08-19T20:05:59.609Z,99.90
2022-08-19T20:08:45.936Z,99.90
2022-08-19T20:11:16.898Z,99.90
2022-08-19T20:13:45.093Z,99.90
2022-08-19T20:16:13.512Z,99.90
2022-08-19T20:18:43.881Z,99.90
2022-08-19T20:21:12.421Z,99.90
2022-08-19T20:23:40.705Z,99.90
2022-08-19T20:26:21.402Z,99.90
2022-08-19T20:28:58.382Z,99.90
2022-08-19T20:31:57.582Z,99.90
2022-08-19T20:34:29.549Z,99.90
2022-08-19T20:36:57.916Z,99.90
2022-08-19T20:39:26.143Z,99.90
2022-08-19T20:41:56.435Z,99.90
2022-08-19T20:44:25.507Z,99.90
2022-08-19T20:46:55.579Z,99.90
2022-08-19T20:49:27.181Z,99.90
2022-08-19T20:51:58.509Z,99.90
2022-08-19T20:54:27.405Z,99.90
2022-08-19T20:56:55.618Z,99.90
2022-08-19T20:59:25.845Z,99.90
2022-08-19T21:01:54.950Z,99.90
2022-08-19T21:04:23.416Z,99.90
2022-08-19T21:06:51.989Z,99.90
2022-08-19T21:09:23.261Z,99.90
2022-08-19T21:11:51.509Z,99.90
2022-08-19T21:14:20.442Z,99.90
2022-08-19T21:16:50.012Z,99.90
2022-08-19T21:19:23.329Z,99.90
2022-08-19T21:21:52.272Z,99.90
2022-08-19T21:24:21.941Z,99.90
2022-08-19T21:26:58.396Z,99.90
2022-08-19T21:29:26.585Z,99.90
2022-08-19T21:31:54.861Z,99.90
2022-08-19T21:34:23.029Z,99.90
2022-08-19T21:36:51.216Z,99.90
2022-08-19T21:39:19.444Z,99.90
2022-08-19T21:41:49.086Z,99.90
2022-08-19T21:44:17.343Z,99.90
2022-08-19T21:46:45.556Z,99.90
2022-08-19T21:49:19.644Z,99.90
2022-08-19T21:51:47.894Z,99.90
2022-08-19T21:54:15.992Z,99.90
2022-08-19T21:56:44.269Z,99.90
2022-08-19T21:59:13.882Z,99.90
2022-08-19T22:01:44.941Z,99.90
2022-08-19T22:04:17.307Z,99.90
2022-08-19T22:06:45.994Z,99.90
2022-08-19T22:09:14.493Z,99.90
2022-08-19T22:11:44.369Z,99.90
2022-08-19T22:14:14.147Z,99.90
2022-08-19T22:16:43.152Z,99.90
2022-08-19T22:19:11.308Z,99.90
2022-08-19T22:21:40.391Z,99.90
2022-08-19T22:24:09.898Z,99.90
2022-08-19T22:26:38.268Z,99.90
2022-08-19T22:29:07.767Z,99.90
2022-08-19T22:31:38.241Z,99.90
2022-08-19T22:34:08.316Z,99.90
2022-08-19T22:36:36.543Z,99.90
2022-08-19T22:39:05.583Z,99.90
2022-08-19T22:41:34.204Z,99.90
2022-08-19T22:44:03.879Z,99.90
2022-08-19T22:46:34.328Z,99.90
2022-08-19T22:49:04.280Z,99.90
2022-08-19T22:51:49.504Z,99.90
2022-08-19T22:54:18.091Z,99.90
2022-08-19T22:56:46.384Z,99.90
2022-08-19T22:59:14.596Z,99.90
2022-08-19T23:01:42.961Z,99.90
2022-08-19T23:04:12.733Z,99.90
2022-08-19T23:06:42.283Z,99.90
2022-08-19T23:09:17.031Z,99.90
2022-08-19T23:11:45.758Z,99.90
2022-08-19T23:14:15.012Z,99.90
2022-08-19T23:16:50.438Z,99.90
2022-08-19T23:19:21.791Z,99.90
2022-08-19T23:21:50.180Z,99.90
2022-08-19T23:24:18.407Z,99.90
2022-08-19T23:27:00.456Z,99.90
2022-08-19T23:29:45.809Z,99.90
2022-08-19T23:32:16.201Z,99.90
2022-08-19T23:34:46.347Z,99.90
2022-08-19T23:37:14.763Z,99.90
2022-08-19T23:39:43.644Z,99.90
2022-08-19T23:42:13.949Z,99.90
2022-08-19T23:44:51.821Z,99.90
2022-08-19T23:47:20.895Z,99.90
2022-08-19T23:49:50.777Z,99.90
2022-08-19T23:52:19.426Z,99.90
2022-08-19T23:54:47.735Z,99.90
2022-08-19T23:57:16.033Z,99.90
2022-08-19T23:59:46.289Z,99.90
